Time;durP1;ratioP1;P1;durP2;ratioP2;P2;SDS_P1;SDS_P2;PMS_P1;PMS_P2;Temp;Humidity;BMP_temperature;BMP_pressure;BME280_temperature;BME280_humidity;BME280_pressure;Samples;Min_cycle;Max_cycle;Signal;HPM_P1;HPM_P2
2023/08/23 00:00:06;;;;;;;;;;;;;;;26.17;83.70;100009.72;6291884;28;20653;-71
2023/08/23 00:03:07;;;;;;;7.43;6.15;;;;;;;26.14;82.57;100005.56;6290506;28;20456;-70
2023/08/23 00:06:09;;;;;;;8.63;6.45;;;;;;;26.13;82.35;100011.94;6293893;28;20052;-70
2023/08/23 00:09:13;;;;;;;6.88;6.18;;;;;;;26.11;82.20;100005.97;6291309;28;20052;-70
2023/08/23 00:12:15;;;;;;;11.82;6.70;;;;;;;26.10;82.07;99990.13;6295686;28;20552;-71
2023/08/23 00:15:16;;;;;;;11.25;7.18;;;;;;;26.04;81.69;99994.38;6288502;28;20050;-70
2023/08/23 00:18:16;;;;;;;9.18;6.43;;;;;;;26.07;81.59;99991.34;6293376;28;20044;-69
2023/08/23 00:21:17;;;;;;;9.00;6.50;;;;;;;25.96;82.37;99991.88;6305840;28;20052;-70
2023/08/23 00:24:21;;;;;;;8.70;6.47;;;;;;;26.07;81.80;99977.97;6291397;28;20289;-71
2023/08/23 00:27:24;;;;;;;7.95;5.82;;;;;;;26.10;81.65;99982.91;6309694;28;20056;-71
2023/08/23 00:30:25;;;;;;;9.20;6.82;;;;;;;26.07;81.23;99974.47;6295349;28;20079;-71
2023/08/23 00:33:25;;;;;;;10.98;6.80;;;;;;;26.06;80.69;99981.66;6289282;28;20050;-70
2023/08/23 00:36:26;;;;;;;8.03;5.77;;;;;;;26.04;81.41;99981.03;6293634;28;20046;-70
2023/08/23 00:39:27;;;;;;;9.50;6.40;;;;;;;26.02;81.47;99984.91;6293365;28;20048;-71
2023/08/23 00:42:28;;;;;;;10.27;6.43;;;;;;;25.93;82.03;99971.72;6279520;28;20051;-69
2023/08/23 00:45:30;;;;;;;10.10;7.32;;;;;;;25.85;82.95;99979.84;6295218;28;20312;-69
2023/08/23 00:48:31;;;;;;;8.40;6.57;;;;;;;25.79;83.11;99979.81;6292729;28;20048;-69
2023/08/23 00:51:33;;;;;;;9.27;6.80;;;;;;;25.78;83.00;99972.78;6276999;28;20425;-70
2023/08/23 00:54:37;;;;;;;12.98;6.72;;;;;;;25.69;83.70;99972.94;6283734;28;20044;-71
2023/08/23 00:57:38;;;;;;;9.30;6.85;;;;;;;25.74;83.69;99975.88;6311160;28;20492;-70
2023/08/23 01:00:40;;;;;;;8.05;6.32;;;;;;;25.77;84.03;99973.84;6294301;28;20353;-70
2023/08/23 01:03:44;;;;;;;8.77;6.75;;;;;;;25.69;83.56;99972.94;6286208;28;20049;-71
2023/08/23 01:07:12;;;;;;;9.40;6.85;;;;;;;25.62;84.15;99965.91;6296024;28;20040;-70
2023/08/23 01:10:28;;;;;;;10.57;7.10;;;;;;;25.70;83.12;99961.25;6325508;28;20055;-70
2023/08/23 01:13:37;;;;;;;11.55;7.03;;;;;;;25.60;83.71;99960.75;6292425;28;20098;-71
2023/08/23 01:16:40;;;;;;;10.27;6.45;;;;;;;25.57;83.88;99952.31;6295582;28;20514;-71
2023/08/23 01:19:50;;;;;;;10.25;6.85;;;;;;;25.48;84.73;99960.47;6291449;28;20519;-71
2023/08/23 01:23:09;;;;;;;9.55;7.13;;;;;;;25.48;85.11;99949.78;6275863;28;20484;-69
2023/08/23 01:26:10;;;;;;;10.88;6.85;;;;;;;25.48;84.68;99941.75;6293663;28;20071;-69
2023/08/23 01:29:11;;;;;;;10.57;7.70;;;;;;;25.51;nan;99949.41;6295062;28;20515;-69
2023/08/23 01:32:31;;;;;;;12.35;7.82;;;;;;;25.49;85.18;99948.78;6287521;28;20048;-69
2023/08/23 01:35:51;;;;;;;10.18;7.10;;;;;;;25.38;85.23;99951.13;6285345;28;20186;-69
2023/08/23 01:38:54;;;;;;;11.00;7.53;;;;;;;25.34;85.05;99950.69;6283585;28;20052;-70
2023/08/23 01:41:55;;;;;;;11.45;6.85;;;;;;;25.32;85.37;99942.84;6284744;28;20063;-70
2023/08/23 01:44:57;;;;;;;9.88;7.13;;;;;;;25.46;84.53;99942.97;6284505;28;20101;-69
2023/08/23 01:47:57;;;;;;;12.10;7.97;;;;;;;25.54;84.25;99946.34;6293285;28;20515;-69
2023/08/23 01:51:00;;;;;;;9.30;7.27;;;;;;;25.53;84.25;99949.19;6293046;28;20045;-71
2023/08/23 01:54:01;;;;;;;10.88;7.05;;;;;;;25.41;84.84;99945.38;6292948;28;20052;-69
2023/08/23 01:57:02;;;;;;;12.10;7.67;;;;;;;25.25;85.58;99950.00;6285442;28;20044;-70
2023/08/23 02:00:03;;;;;;;10.60;7.47;;;;;;;25.31;85.55;99953.75;6292877;28;20796;-69
2023/08/23 02:03:04;;;;;;;;;;;;;;;25.26;86.16;99948.97;6295284;28;20131;-70
2023/08/23 02:06:05;;;;;;;9.73;7.27;;;;;;;25.23;86.26;99949.38;6299773;28;19920;-69
2023/08/23 02:09:06;;;;;;;11.17;8.30;;;;;;;25.22;86.37;99953.03;6297297;28;20408;-69
2023/08/23 02:12:09;;;;;;;9.70;7.07;;;;;;;25.24;86.11;99955.53;6297489;28;20488;-69
2023/08/23 02:15:12;;;;;;;12.35;7.97;;;;;;;25.19;85.92;99958.75;6299106;28;20407;-69
2023/08/23 02:18:13;;;;;;;14.63;7.68;;;;;;;25.17;85.75;99949.28;6296847;28;20105;-69
2023/08/23 02:21:13;;;;;;;12.80;8.57;;;;;;;25.19;85.71;99949.91;6297385;28;20052;-70
2023/08/23 02:24:14;;;;;;;13.33;8.37;;;;;;;25.17;85.14;99954.63;6300219;28;20075;-69
2023/08/23 02:27:15;;;;;;;14.30;7.63;;;;;;;25.18;84.86;99943.72;6296639;28;20066;-69
2023/08/23 02:30:15;;;;;;;9.73;7.47;;;;;;;25.13;86.30;99946.16;6297032;28;20049;-69
2023/08/23 02:33:18;;;;;;;10.65;7.10;;;;;;;25.19;85.55;99944.56;6296289;28;20053;-69
2023/08/23 02:36:20;;;;;;;11.30;7.95;;;;;;;25.14;85.26;99934.44;6296717;28;20503;-69
2023/08/23 02:39:21;;;;;;;10.48;7.78;;;;;;;25.10;86.01;99926.03;6289287;28;21269;-69
2023/08/23 02:42:24;;;;;;;10.57;7.27;;;;;;;25.08;85.94;99922.72;6295599;28;20460;-69
2023/08/23 02:45:27;;;;;;;13.02;7.68;;;;;;;25.15;85.98;99920.09;6295983;28;20055;-70
2023/08/23 02:48:30;;;;;;;12.30;7.82;;;;;;;25.07;86.10;99922.91;6298185;28;20049;-69
2023/08/23 02:51:30;;;;;;;10.98;8.48;;;;;;;25.11;85.96;99927.66;6280622;28;20061;-69
2023/08/23 02:54:33;;;;;;;10.93;8.10;;;;;;;25.02;86.37;99922.63;6297834;28;20055;-70
2023/08/23 02:57:34;;;;;;;13.70;8.35;;;;;;;25.01;86.61;99926.34;6296384;28;20407;-70
2023/08/23 03:00:35;;;;;;;12.67;7.93;;;;;;;25.00;87.20;99922.84;6294291;28;20052;-68
2023/08/23 03:03:35;;;;;;;11.60;7.83;;;;;;;24.97;86.93;99925.88;6293052;28;20052;-70
2023/08/23 03:06:36;;;;;;;12.00;8.40;;;;;;;24.92;86.50;99929.13;6298185;28;20103;-71
2023/08/23 03:09:37;;;;;;;9.97;7.83;;;;;;;24.91;87.15;99927.50;6304906;28;20052;-69
2023/08/23 03:12:38;;;;;;;12.03;8.07;;;;;;;24.89;87.69;99934.00;6308386;28;20488;-69
2023/08/23 03:15:38;;;;;;;11.10;7.80;;;;;;;24.88;87.58;99933.19;6287018;28;20297;-70
2023/08/23 03:18:42;;;;;;;12.70;8.03;;;;;;;24.89;87.77;99934.00;6296328;28;20072;-69
2023/08/23 03:21:43;;;;;;;11.60;9.02;;;;;;;24.86;87.13;99939.75;6295169;28;20045;-70
2023/08/23 03:24:44;;;;;;;12.43;8.67;;;;;;;24.87;86.87;99930.69;6284222;28;20191;-69
2023/08/23 03:27:45;;;;;;;12.50;8.33;;;;;;;24.83;87.14;99932.94;6296164;28;20053;-69
2023/08/23 03:30:46;;;;;;;15.95;8.40;;;;;;;24.81;86.89;99926.13;6292793;28;20488;-70
2023/08/23 03:33:46;;;;;;;15.87;8.67;;;;;;;24.72;87.41;99928.91;6292590;28;20097;-71
2023/08/23 03:36:48;;;;;;;14.70;8.47;;;;;;;24.69;87.40;99923.97;6287437;28;20368;-69
2023/08/23 03:39:49;;;;;;;13.25;9.07;;;;;;;24.68;87.25;99911.63;6296351;28;20127;-69
2023/08/23 03:42:50;;;;;;;12.90;8.97;;;;;;;24.65;87.30;99920.03;6294473;28;20063;-69
2023/08/23 03:45:51;;;;;;;16.90;8.93;;;;;;;24.68;86.71;99924.97;6296727;28;20044;-70
2023/08/23 03:48:52;;;;;;;11.47;8.47;;;;;;;24.71;85.80;99926.44;6284440;28;20059;-70
2023/08/23 03:51:52;;;;;;;10.85;8.10;;;;;;;24.70;85.89;99917.59;6273470;28;20061;-71
2023/08/23 03:54:53;;;;;;;11.30;8.20;;;;;;;24.69;85.65;99925.81;6277658;28;20159;-70
2023/08/23 03:57:56;;;;;;;18.80;8.20;;;;;;;24.69;85.65;99917.81;6280343;28;20048;-70
2023/08/23 04:00:57;;;;;;;14.48;8.43;;;;;;;24.72;84.85;99920.91;6296416;28;20540;-69
2023/08/23 04:03:58;;;;;;;11.63;8.30;;;;;;;24.74;84.65;99918.06;6295373;28;20044;-69
2023/08/23 04:06:59;;;;;;;16.53;8.50;;;;;;;24.76;85.00;99929.38;6284364;28;20135;-69
2023/08/23 04:09:59;;;;;;;13.93;8.27;;;;;;;24.72;84.69;99926.25;6284693;28;20049;-70
2023/08/23 04:13:00;;;;;;;13.50;8.17;;;;;;;24.84;84.49;99937.25;6292879;28;20060;-69
2023/08/23 04:16:01;;;;;;;11.90;7.50;;;;;;;24.92;84.36;99933.66;6294959;28;20040;-69
2023/08/23 04:19:01;;;;;;;15.63;8.00;;;;;;;25.01;84.42;99934.34;6312381;28;20055;-70
2023/08/23 04:22:02;;;;;;;12.03;7.90;;;;;;;25.07;84.63;99936.25;6293155;28;20041;-70
2023/08/23 04:25:03;;;;;;;16.83;8.23;;;;;;;25.12;84.53;99939.16;6294818;28;20131;-70
2023/08/23 04:28:04;;;;;;;10.68;6.63;;;;;;;25.16;83.77;99934.25;6292214;28;20503;-70
2023/08/23 04:31:05;;;;;;;12.07;7.35;;;;;;;25.13;84.77;99933.63;6296374;28;20052;-70
2023/08/23 04:34:06;;;;;;;18.50;8.03;;;;;;;25.19;83.56;99932.03;6292268;28;20051;-70
2023/08/23 04:37:07;;;;;;;15.93;8.43;;;;;;;25.28;82.78;99935.44;6299525;28;20450;-69
2023/08/23 04:40:08;;;;;;;13.00;7.93;;;;;;;25.23;83.42;99935.19;6295631;28;20052;-70
2023/08/23 04:43:09;;;;;;;12.60;7.53;;;;;;;25.30;83.32;99938.72;6285795;28;20051;-70
2023/08/23 04:46:09;;;;;;;11.53;7.10;;;;;;;25.36;82.55;99945.16;6296913;28;20074;-70
2023/08/23 04:49:10;;;;;;;10.63;7.03;;;;;;;25.39;83.51;99945.59;6295724;28;20063;-70
2023/08/23 04:52:11;;;;;;;20.80;7.30;;;;;;;25.45;83.18;99943.97;6295266;28;20055;-70
2023/08/23 04:55:12;;;;;;;11.10;6.80;;;;;;;25.41;82.49;99948.91;6294848;28;20540;-73
2023/08/23 04:58:12;;;;;;;15.35;7.72;;;;;;;25.56;82.97;99942.66;6290520;28;20094;-69
2023/08/23 05:01:14;;;;;;;9.17;7.33;;;;;;;25.56;81.73;99942.66;6294042;28;20055;-71
2023/08/23 05:04:22;;;;;;;12.07;7.25;;;;;;;25.53;81.51;99943.84;6295357;28;20059;-70
2023/08/23 05:07:22;;;;;;;11.63;6.93;;;;;;;25.58;81.92;99948.63;6297191;28;20049;-70
2023/08/23 05:10:23;;;;;;;15.73;7.33;;;;;;;25.61;81.87;99943.69;6296201;28;20080;-70
2023/08/23 05:13:24;;;;;;;11.23;7.37;;;;;;;25.47;81.67;99942.78;6293753;28;20135;-69
2023/08/23 05:16:24;;;;;;;11.57;6.03;;;;;;;25.44;82.36;99943.16;6294989;28;20049;-71
2023/08/23 05:19:25;;;;;;;11.87;7.63;;;;;;;25.48;82.51;99932.94;6277756;28;20140;-72
2023/08/23 05:22:26;;;;;;;10.93;7.57;;;;;;;25.47;82.70;99936.59;6296117;28;20125;-69
2023/08/23 05:25:27;;;;;;;14.63;7.47;;;;;;;25.56;82.52;99946.16;6295850;28;20102;-71
2023/08/23 05:28:27;;;;;;;10.30;7.37;;;;;;;25.46;82.70;99940.31;6295969;28;20075;-68
2023/08/23 05:31:28;;;;;;;10.20;7.47;;;;;;;25.55;83.00;99944.47;6295626;28;20056;-68
2023/08/23 05:34:29;;;;;;;17.93;7.37;;;;;;;25.67;82.94;99944.78;6297006;28;20509;-70
2023/08/23 05:37:30;;;;;;;12.77;8.07;;;;;;;25.66;82.86;99948.47;6298323;28;20150;-69
2023/08/23 05:40:30;;;;;;;12.73;7.50;;;;;;;25.71;83.33;99944.19;6300498;28;20143;-70
2023/08/23 05:43:31;;;;;;;9.73;7.57;;;;;;;25.88;82.49;99954.56;6301168;28;20491;-69
2023/08/23 05:46:32;;;;;;;11.40;7.63;;;;;;;26.00;82.17;99954.88;6301094;28;20041;-70
2023/08/23 05:49:33;;;;;;;9.70;7.20;;;;;;;26.03;81.33;99958.00;6300361;28;20388;-72
2023/08/23 05:52:36;;;;;;;16.03;8.03;;;;;;;26.13;81.77;99961.16;6300363;28;20052;-73
2023/08/23 05:55:37;;;;;;;12.32;7.85;;;;;;;26.20;82.22;99963.84;6299879;28;20395;-69
2023/08/23 05:58:38;;;;;;;10.45;7.43;;;;;;;26.18;81.85;99971.25;6300396;28;20058;-69
2023/08/23 06:01:38;;;;;;;12.67;7.63;;;;;;;26.22;80.83;99967.16;6299667;28;20049;-71
2023/08/23 06:04:39;;;;;;;9.70;7.43;;;;;;;26.31;80.69;99968.63;6299373;28;20461;-71
2023/08/23 06:07:41;;;;;;;10.63;7.50;;;;;;;26.40;80.60;99969.31;6300490;28;20049;-71
2023/08/23 06:10:41;;;;;;;13.23;7.47;;;;;;;26.65;79.32;99974.16;6299289;28;20055;-69
2023/08/23 06:13:42;;;;;;;15.70;7.93;;;;;;;26.74;78.20;99967.59;6300425;28;20049;-71
2023/08/23 06:16:45;;;;;;;11.52;7.72;;;;;;;26.96;77.76;99965.59;6299195;28;20050;-69
2023/08/23 06:19:46;;;;;;;12.82;7.35;;;;;;;27.01;78.01;99971.16;6300250;28;20101;-71
2023/08/23 06:22:48;;;;;;;9.90;7.53;;;;;;;26.87;77.04;99981.03;6288871;28;20048;-70
2023/08/23 06:25:48;;;;;;;;;;;;;;;27.03;76.12;99990.50;6294700;28;20776;-70
2023/08/23 06:28:49;;;;;;;13.63;7.50;;;;;;;27.12;76.65;99986.63;6298838;28;19970;-70
2023/08/23 06:31:52;;;;;;;10.20;7.13;;;;;;;27.07;76.21;99974.88;6298992;28;20128;-70
2023/08/23 06:34:53;;;;;;;15.63;7.32;;;;;;;27.05;78.17;99967.03;6299390;28;20067;-70
2023/08/23 06:37:56;;;;;;;12.33;8.00;;;;;;;27.07;77.62;99982.91;6299891;28;20048;-70
2023/08/23 06:40:57;;;;;;;13.13;7.40;;;;;;;27.46;76.04;99981.34;6299762;28;20280;-70
2023/08/23 06:44:00;;;;;;;9.63;6.95;;;;;;;27.73;75.00;99991.00;6298139;28;20052;-69
2023/08/23 06:47:01;;;;;;;11.15;7.75;;;;;;;28.11;73.95;99985.00;6298197;28;20102;-70
2023/08/23 06:50:01;;;;;;;13.02;7.55;;;;;;;28.32;71.76;99985.78;6297879;28;20492;-71
2023/08/23 06:53:05;;;;;;;14.07;7.57;;;;;;;28.63;69.65;99993.09;6298382;28;20175;-71
2023/08/23 06:56:11;;;;;;;9.93;7.03;;;;;;;28.73;70.22;99990.78;6299400;28;20049;-71
2023/08/23 06:59:11;;;;;;;20.77;7.22;;;;;;;29.31;66.85;99995.22;6297906;28;20048;-70
2023/08/23 07:02:12;;;;;;;10.50;6.93;;;;;;;29.24;66.47;100002.50;6297893;28;20723;-69
2023/08/23 07:05:13;;;;;;;16.83;7.07;;;;;;;29.42;65.12;100009.81;6298877;28;20056;-70
2023/08/23 07:08:14;;;;;;;11.20;7.35;;;;;;;29.23;65.59;100011.59;6297821;28;20055;-70
2023/08/23 07:11:15;;;;;;;12.75;7.72;;;;;;;29.37;66.84;100019.59;6297635;28;20451;-71
2023/08/23 07:14:15;;;;;;;13.10;7.05;;;;;;;29.42;65.23;100009.81;6297660;28;20048;-71
2023/08/23 07:17:16;;;;;;;8.85;6.53;;;;;;;29.43;63.57;100007.97;6297689;28;20481;-69
2023/08/23 07:20:19;;;;;;;12.15;7.20;;;;;;;29.62;65.05;100009.66;6297747;28;20056;-71
2023/08/23 07:23:20;;;;;;;11.43;6.53;;;;;;;29.76;65.52;100017.66;6297388;28;20048;-71
2023/08/23 07:26:21;;;;;;;11.68;7.50;;;;;;;29.35;66.23;100021.66;6292780;28;20626;-71
2023/08/23 07:29:22;;;;;;;9.20;6.80;;;;;;;29.35;67.29;100019.78;6290881;28;20055;-71
2023/08/23 07:32:23;;;;;;;11.43;6.50;;;;;;;29.28;67.01;100027.91;6298253;28;20044;-70
2023/08/23 07:35:23;;;;;;;12.57;6.68;;;;;;;29.27;67.28;100023.56;6279428;28;20045;-69
2023/08/23 07:38:25;;;;;;;7.63;6.20;;;;;;;29.19;67.42;100023.81;6291319;28;20045;-70
2023/08/23 07:41:26;;;;;;;8.38;5.82;;;;;;;28.84;67.59;100018.81;6296731;28;20041;-71
2023/08/23 07:44:29;;;;;;;8.25;6.22;;;;;;;28.37;66.78;100015.47;6284529;28;20114;-69
2023/08/23 07:47:30;;;;;;;11.07;6.00;;;;;;;29.02;65.98;100010.06;6294618;28;20045;-71
2023/08/23 07:50:30;;;;;;;15.15;6.22;;;;;;;29.40;65.16;100014.56;6281900;28;20497;-71
2023/08/23 07:53:31;;;;;;;11.73;6.70;;;;;;;29.90;66.61;100001.16;6293437;28;20105;-70
2023/08/23 07:56:34;;;;;;;12.57;6.32;;;;;;;30.27;64.09;100006.56;6296064;28;20079;-72
2023/08/23 07:59:35;;;;;;;12.27;6.82;;;;;;;30.43;63.40;100004.34;6282682;28;20482;-70
2023/08/23 08:02:36;;;;;;;15.48;6.18;;;;;;;30.58;63.07;100004.78;6275457;28;20102;-70
2023/08/23 08:05:36;;;;;;;7.70;5.82;;;;;;;30.98;60.73;100004.28;6292055;28;20053;-70
2023/08/23 08:08:41;;;;;;;10.48;6.13;;;;;;;30.90;56.54;100002.72;6297656;28;20044;-70
2023/08/23 08:11:41;;;;;;;6.90;5.55;;;;;;;31.13;56.03;100020.03;6296451;28;20064;-72
2023/08/23 08:14:42;;;;;;;9.80;5.43;;;;;;;31.33;56.29;100009.75;6295740;28;20044;-70
2023/08/23 08:17:43;;;;;;;9.85;5.68;;;;;;;31.59;57.09;99999.66;6296141;28;20082;-70
2023/08/23 08:20:50;;;;;;;6.82;5.00;;;;;;;31.86;55.36;99997.31;6296119;28;20454;-72
2023/08/23 08:23:50;;;;;;;8.98;5.82;;;;;;;31.81;53.36;99999.88;6297149;28;20056;-71
2023/08/23 08:26:51;;;;;;;7.85;5.72;;;;;;;31.86;54.92;99991.09;6296006;28;20055;-70
2023/08/23 08:29:52;;;;;;;8.00;5.20;;;;;;;32.26;53.13;100007.38;6295988;28;20549;-70
2023/08/23 08:32:52;;;;;;;8.30;5.32;;;;;;;32.52;53.73;99997.91;6295985;28;20386;-71
2023/08/23 08:35:55;;;;;;;8.80;5.60;;;;;;;32.41;53.04;99988.00;6295966;28;20048;-72
2023/08/23 08:38:56;;;;;;;9.63;5.60;;;;;;;32.73;53.01;99990.25;6295780;28;20467;-70
2023/08/23 08:41:58;;;;;;;10.98;5.57;;;;;;;32.64;52.48;99983.59;6296756;28;20052;-70
2023/08/23 08:44:59;;;;;;;12.48;5.22;;;;;;;32.56;52.88;99983.97;6295458;28;20049;-70
2023/08/23 08:48:00;;;;;;;8.60;5.03;;;;;;;32.86;52.92;99979.13;6296971;28;20086;-72
2023/08/23 08:51:02;;;;;;;;;;;;;;;33.08;54.40;99986.59;6297243;28;20573;-69
2023/08/23 08:54:05;;;;;;;7.28;4.72;;;;;;;33.11;51.48;99973.41;6295818;28;19920;-72
2023/08/23 08:57:06;;;;;;;8.60;4.88;;;;;;;33.30;51.91;99981.28;6296839;28;20052;-70
2023/08/23 09:00:09;;;;;;;7.47;4.88;;;;;;;33.07;51.43;99983.03;6295630;28;20488;-70
2023/08/23 09:03:09;;;;;;;8.73;4.88;;;;;;;33.28;49.33;99978.81;6296591;28;20136;-70
2023/08/23 09:06:10;;;;;;;;;;;;;;;33.49;48.08;99981.84;6295441;28;20053;-72
2023/08/23 09:09:12;;;;;;;6.40;4.65;;;;;;;33.50;48.87;99978.06;6295287;28;19924;-72
2023/08/23 09:12:15;;;;;;;13.18;5.00;;;;;;;33.56;49.88;99974.38;6297976;28;20486;-70
2023/08/23 09:15:23;;;;;;;6.60;4.57;;;;;;;33.63;49.43;99975.06;6301671;28;20133;-70
2023/08/23 09:18:26;;;;;;;6.60;4.45;;;;;;;33.75;49.02;99977.69;6301863;28;20048;-70
2023/08/23 09:21:27;;;;;;;7.47;4.60;;;;;;;33.86;48.61;99984.06;6300450;28;20053;-70
2023/08/23 09:24:30;;;;;;;;;;;;;;;33.87;45.76;99978.41;6300746;28;20049;-71
2023/08/23 09:27:31;;;;;;;6.45;4.47;;;;;;;34.02;47.70;99980.50;6301365;28;19924;-70
2023/08/23 09:30:33;;;;;;;5.72;4.32;;;;;;;34.11;45.57;99981.69;6300095;28;20052;-72
2023/08/23 09:33:39;;;;;;;5.63;4.30;;;;;;;34.26;44.67;99980.25;6298346;28;20044;-72
2023/08/23 09:36:40;;;;;;;4.70;3.72;;;;;;;34.15;45.73;99976.63;6299827;28;20377;-69
2023/08/23 09:39:41;;;;;;;6.78;3.90;;;;;;;34.46;46.13;99971.56;6300917;28;20052;-70
2023/08/23 09:42:43;;;;;;;6.88;4.32;;;;;;;34.66;43.60;99977.25;6300903;28;20063;-72
2023/08/23 09:45:47;;;;;;;7.30;4.18;;;;;;;34.81;43.61;99976.56;6299841;28;20049;-70
2023/08/23 09:48:50;;;;;;;7.85;5.07;;;;;;;34.73;45.12;99971.63;6298761;28;20416;-72
2023/08/23 09:51:54;;;;;;;6.20;4.30;;;;;;;34.74;44.84;99967.00;6299414;28;20495;-72
2023/08/23 09:55:09;;;;;;;7.40;4.43;;;;;;;34.86;44.93;99971.22;6299160;28;20050;-72
2023/08/23 09:58:13;;;;;;;9.43;4.70;;;;;;;35.36;44.48;99971.13;6276789;28;20199;-70
2023/08/23 10:01:18;;;;;;;8.50;4.38;;;;;;;35.30;40.85;99967.56;6300624;28;20131;-72
2023/08/23 10:04:19;;;;;;;6.47;4.20;;;;;;;35.30;43.15;99962.94;6299253;28;20048;-70
2023/08/23 10:07:20;;;;;;;10.82;4.57;;;;;;;35.49;41.30;99967.97;6299701;28;20136;-70
2023/08/23 10:10:23;;;;;;;6.32;3.85;;;;;;;35.74;44.65;99967.34;6285737;28;20048;-70
2023/08/23 10:13:24;;;;;;;5.72;4.53;;;;;;;35.74;41.16;99959.19;6293245;28;20492;-72
2023/08/23 10:16:26;;;;;;;7.13;4.72;;;;;;;35.60;42.99;99963.41;6295582;28;20119;-72
2023/08/23 10:19:27;;;;;;;5.88;4.43;;;;;;;35.71;43.96;99946.16;6293932;28;20052;-72
2023/08/23 10:22:28;;;;;;;8.10;4.75;;;;;;;35.55;39.68;99942.50;6294545;28;20512;-70
2023/08/23 10:25:32;;;;;;;5.60;4.28;;;;;;;35.64;43.10;99946.34;6299187;28;20048;-72
2023/08/23 10:28:47;;;;;;;6.95;4.80;;;;;;;36.06;44.00;99942.00;6297233;28;20528;-72
2023/08/23 10:31:55;;;;;;;8.25;4.53;;;;;;;36.08;43.73;99945.25;6298140;28;20522;-72
2023/08/23 10:34:56;;;;;;;9.32;5.07;;;;;;;36.50;43.91;99938.88;6288377;28;20440;-70
2023/08/23 10:37:57;;;;;;;5.97;4.22;;;;;;;35.61;41.24;99930.59;6276777;28;20053;-70
2023/08/23 10:41:00;;;;;;;8.68;4.72;;;;;;;35.65;39.75;99930.94;6288523;28;20127;-72
2023/08/23 10:44:02;;;;;;;8.88;4.57;;;;;;;35.99;41.89;99927.81;6290826;28;20423;-72
2023/08/23 10:47:09;;;;;;;11.18;4.97;;;;;;;36.07;39.09;99919.16;6289772;28;20106;-72
2023/08/23 10:50:10;;;;;;;9.90;4.55;;;;;;;36.16;40.93;99919.50;6294520;28;20052;-72
2023/08/23 10:53:12;;;;;;;6.28;4.47;;;;;;;36.38;41.51;99911.16;6299477;28;20050;-72
2023/08/23 10:56:12;;;;;;;7.18;4.68;;;;;;;36.40;39.85;99906.25;6299082;28;20055;-72
2023/08/23 10:59:13;;;;;;;5.80;4.28;;;;;;;36.64;41.30;99907.44;6299417;28;20412;-72
2023/08/23 11:02:15;;;;;;;11.13;4.93;;;;;;;36.73;42.77;99906.88;6290722;28;20048;-70
2023/08/23 11:05:16;;;;;;;8.18;4.47;;;;;;;36.69;39.82;99904.72;6276390;28;20049;-72
2023/08/23 11:08:17;;;;;;;7.05;4.85;;;;;;;37.03;37.59;99906.91;6275981;28;20052;-72
2023/08/23 11:11:20;;;;;;;11.63;5.20;;;;;;;37.32;38.38;99898.19;6282006;28;20052;-70
2023/08/23 11:14:23;;;;;;;13.20;4.90;;;;;;;37.29;40.03;99887.84;6285843;28;20501;-72
2023/08/23 11:17:24;;;;;;;7.57;4.22;;;;;;;37.05;38.76;99884.88;6282941;28;20048;-72
2023/08/23 11:20:28;;;;;;;8.10;5.22;;;;;;;37.42;40.50;99876.41;6289961;28;20094;-72
2023/08/23 11:23:29;;;;;;;8.93;4.50;;;;;;;37.09;43.62;99875.88;6297778;28;20095;-73
2023/08/23 11:26:41;;;;;;;6.57;4.30;;;;;;;37.29;41.67;99869.63;6290935;28;20044;-72
2023/08/23 11:29:42;;;;;;;9.13;4.82;;;;;;;37.09;39.86;99873.16;6275231;28;20057;-72
2023/08/23 11:32:43;;;;;;;6.03;4.70;;;;;;;37.45;39.87;99861.41;6272695;28;20049;-71
2023/08/23 11:35:44;;;;;;;13.43;4.75;;;;;;;37.15;39.97;99865.84;6275910;28;20041;-72
2023/08/23 11:38:48;;;;;;;6.45;4.53;;;;;;;37.22;39.14;99862.84;6281066;28;20053;-69
2023/08/23 11:41:50;;;;;;;6.80;4.93;;;;;;;37.34;38.21;99862.56;6272248;28;20049;-70
2023/08/23 11:44:55;;;;;;;9.00;4.32;;;;;;;37.93;39.80;99863.72;6273455;28;20049;-70
2023/08/23 11:47:56;;;;;;;12.48;4.38;;;;;;;37.86;38.67;99862.09;6282314;28;20060;-72
2023/08/23 11:51:01;;;;;;;8.88;4.80;;;;;;;37.45;38.19;99856.78;6283544;28;20049;-70
2023/08/23 11:54:04;;;;;;;5.88;4.65;;;;;;;37.43;37.53;99845.38;6295269;28;20079;-72
2023/08/23 11:57:05;;;;;;;5.80;4.55;;;;;;;37.90;40.79;99844.13;6297958;28;20051;-72
2023/08/23 12:00:09;;;;;;;6.47;4.25;;;;;;;37.89;37.66;99837.06;6297614;28;20049;-72
2023/08/23 12:03:10;;;;;;;5.78;4.35;;;;;;;37.56;40.09;99833.09;6296800;28;20048;-69
2023/08/23 12:06:11;;;;;;;8.23;3.75;;;;;;;37.77;39.76;99833.84;6296042;28;20109;-70
2023/08/23 12:09:12;;;;;;;8.55;4.22;;;;;;;37.27;41.73;99825.56;6297452;28;20052;-70
2023/08/23 12:12:12;;;;;;;5.97;4.40;;;;;;;37.36;39.76;99814.13;6297530;28;20048;-70
2023/08/23 12:15:13;;;;;;;6.38;4.50;;;;;;;36.77;41.67;99807.41;6285375;28;20048;-72
2023/08/23 12:18:14;;;;;;;7.43;4.30;;;;;;;36.15;44.94;99809.25;6283852;28;20053;-72
2023/08/23 12:21:15;;;;;;;4.80;4.03;;;;;;;36.38;44.16;99806.03;6281739;28;20056;-70
2023/08/23 12:24:16;;;;;;;5.05;3.97;;;;;;;35.68;45.48;99803.66;6294364;28;20076;-70
2023/08/23 12:27:17;;;;;;;6.13;4.70;;;;;;;35.48;46.68;99798.13;6295178;28;20052;-70
2023/08/23 12:30:18;;;;;;;5.55;4.57;;;;;;;34.95;48.65;99802.72;6295984;28;20439;-72
2023/08/23 12:33:19;;;;;;;6.75;4.78;;;;;;;34.96;47.82;99796.19;6296065;28;20389;-72
2023/08/23 12:36:20;;;;;;;6.70;4.85;;;;;;;34.82;48.85;99798.53;6295804;28;20131;-73
2023/08/23 12:39:21;;;;;;;9.85;4.88;;;;;;;34.35;50.66;99791.91;6295852;28;20052;-72
2023/08/23 12:42:22;;;;;;;5.93;4.50;;;;;;;33.96;49.54;99777.72;6296918;28;20143;-72
2023/08/23 12:45:23;;;;;;;8.18;4.47;;;;;;;33.63;48.94;99782.22;6295787;28;20049;-72
2023/08/23 12:48:24;;;;;;;5.57;4.15;;;;;;;34.42;49.90;99778.97;6295158;28;20409;-72
2023/08/23 12:51:25;;;;;;;5.82;4.53;;;;;;;34.37;48.85;99780.81;6296957;28;20048;-72
2023/08/23 12:54:26;;;;;;;5.28;4.53;;;;;;;34.55;48.92;99780.41;6292031;28;20462;-70
2023/08/23 12:57:28;;;;;;;10.38;3.85;;;;;;;34.60;48.20;99771.53;6285977;28;20044;-71
2023/08/23 13:00:29;;;;;;;6.60;4.50;;;;;;;34.64;50.71;99780.78;6285323;28;20127;-72
2023/08/23 13:03:30;;;;;;;8.18;4.22;;;;;;;34.24;50.81;99776.63;6285773;28;20459;-72
2023/08/23 13:06:31;;;;;;;7.13;3.88;;;;;;;34.78;49.71;99770.31;6285378;28;20450;-72
2023/08/23 13:09:33;;;;;;;4.93;3.38;;;;;;;34.75;50.97;99766.25;6285295;28;20048;-72
2023/08/23 13:12:34;;;;;;;7.53;3.72;;;;;;;34.52;48.87;99770.13;6284314;28;20048;-72
2023/08/23 13:15:35;;;;;;;5.47;3.38;;;;;;;34.70;47.39;99771.66;6284305;28;20048;-70
2023/08/23 13:18:36;;;;;;;5.47;3.50;;;;;;;34.56;50.52;99776.66;6277511;28;20059;-72
2023/08/23 13:21:37;;;;;;;5.20;3.25;;;;;;;35.56;46.54;99778.63;6277518;28;20044;-72
2023/08/23 13:24:37;;;;;;;5.30;3.65;;;;;;;34.61;47.23;99775.88;6277927;28;20400;-72
2023/08/23 13:27:40;;;;;;;4.03;3.53;;;;;;;33.76;48.98;99781.81;6276372;28;20048;-72
2023/08/23 13:30:41;;;;;;;7.18;3.55;;;;;;;33.59;49.62;99781.84;6283865;28;20155;-72
2023/08/23 13:33:46;;;;;;;4.07;3.33;;;;;;;33.50;51.62;99784.19;6291434;28;20048;-73
2023/08/23 13:36:48;;;;;;;5.15;3.22;;;;;;;33.01;51.05;99794.84;6296064;28;20101;-70
2023/08/23 13:39:49;;;;;;;7.03;3.70;;;;;;;32.84;54.33;99800.25;6294828;28;20048;-70
2023/08/23 13:42:49;;;;;;;4.22;3.25;;;;;;;32.55;53.58;99796.81;6296075;28;20443;-70
2023/08/23 13:45:50;;;;;;;;;;;;;;;33.09;55.36;99810.69;6289061;28;20378;-72
2023/08/23 13:48:51;;;;;;;4.37;3.00;;;;;;;33.61;54.61;99808.69;6292628;28;19920;-70
2023/08/23 13:51:51;;;;;;;;;;;;;;;33.72;54.65;99813.16;6295176;28;20106;-70
2023/08/23 13:54:52;;;;;;;4.60;3.23;;;;;;;33.48;55.86;99807.13;6295711;28;19924;-70
2023/08/23 13:57:53;;;;;;;;;;;;;;;33.40;55.32;99824.63;6295159;28;20052;-72
2023/08/23 14:00:53;;;;;;;6.70;3.20;;;;;;;33.16;54.68;99826.72;6299153;28;19929;-71
2023/08/23 14:03:56;;;;;;;3.65;3.15;;;;;;;33.67;54.32;99815.81;6299428;28;20488;-72
2023/08/23 14:06:57;;;;;;;8.45;2.83;;;;;;;34.35;52.39;99820.88;6298546;28;20149;-70
2023/08/23 14:09:58;;;;;;;;;;;;;;;34.43;52.86;99823.09;6299032;28;20049;-70
2023/08/23 14:12:58;;;;;;;4.53;2.70;;;;;;;34.57;53.24;99826.22;6299261;28;20486;-72